createdAt,value
2022-08-29T00:04:36.120Z,100014.06
2022-08-29T00:09:27.841Z,100014.03
2022-08-29T00:14:23.289Z,100008.19
2022-08-29T00:19:15.445Z,100016.13
2022-08-29T00:24:07.445Z,100022.72
2022-08-29T00:28:59.057Z,100024.59
2022-08-29T00:33:52.307Z,100016.88
2022-08-29T00:38:44.170Z,100021.22
2022-08-29T00:43:37.398Z,100019.47
2022-08-29T00:48:29.653Z,100021.06
2022-08-29T00:53:30.317Z,100022.69
2022-08-29T00:58:27.819Z,100027.59
2022-08-29T01:03:20.010Z,100024.81
2022-08-29T01:08:12.244Z,100033.56
2022-08-29T01:13:06.177Z,100029.41
2022-08-29T01:18:00.275Z,100040.59
2022-08-29T01:23:19.089Z,100035.88
2022-08-29T01:28:18.951Z,100047.34
2022-08-29T01:33:10.707Z,100044.56
2022-08-29T01:38:03.681Z,100042.84
2022-08-29T01:42:57.618Z,100038.94
2022-08-29T01:47:49.202Z,100035.88
2022-08-29T01:52:42.795Z,100045.69
2022-08-29T01:57:37.818Z,100047.25
2022-08-29T02:02:30.206Z,100050.78
2022-08-29T02:07:25.444Z,100042.47
2022-08-29T02:12:17.592Z,100044.91
2022-08-29T02:17:10.146Z,100045.94
2022-08-29T02:22:02.692Z,100050.25
2022-08-29T02:26:56.057Z,100052.97
2022-08-29T02:31:47.813Z,100058.16
2022-08-29T02:36:41.415Z,100053.41
2022-08-29T02:41:33.391Z,100060.22
2022-08-29T02:46:25.971Z,100051.91
2022-08-29T02:51:24.183Z,100053.47
2022-08-29T02:56:16.062Z,100058.88
2022-08-29T03:01:08.051Z,100061.28
2022-08-29T03:05:59.725Z,100054.66
2022-08-29T03:10:51.399Z,100058.16
2022-08-29T03:15:43.397Z,100063.63
2022-08-29T03:20:37.063Z,100059.72
2022-08-29T03:25:28.772Z,100060.47
2022-08-29T03:30:21.209Z,100060.16
2022-08-29T03:35:18.081Z,100054.31
2022-08-29T03:40:10.678Z,100057.78
2022-08-29T03:45:06.001Z,100062.38
2022-08-29T03:49:57.610Z,100061.19
2022-08-29T03:54:49.286Z,100074.56
2022-08-29T03:59:40.888Z,100065.75
2022-08-29T04:04:51.181Z,100063.25
2022-08-29T04:09:42.840Z,100066.84
2022-08-29T04:14:35.400Z,100056.97
2022-08-29T04:19:27.106Z,100062.19
2022-08-29T04:24:19.730Z,100067.91
2022-08-29T04:29:12.926Z,100074.19
2022-08-29T04:34:06.556Z,100074.44
2022-08-29T04:38:58.226Z,100079.09
2022-08-29T04:43:49.825Z,100079.34
2022-08-29T04:48:41.426Z,100074.94
2022-08-29T04:53:33.029Z,100085.06
2022-08-29T04:58:25.393Z,100091.63
2022-08-29T05:03:18.224Z,100106.41
2022-08-29T05:08:09.922Z,100108.53
2022-08-29T05:13:01.579Z,100118.41
2022-08-29T05:17:54.379Z,100125.78
2022-08-29T05:22:45.999Z,100119.47
2022-08-29T05:27:40.160Z,100118.41
2022-08-29T05:32:31.998Z,100112.94
2022-08-29T05:37:23.818Z,100112.59
2022-08-29T05:42:17.258Z,100127.09
2022-08-29T05:47:12.146Z,100125.44
2022-08-29T05:52:05.086Z,100129.25
2022-08-29T05:56:57.137Z,100123.19
2022-08-29T06:01:48.818Z,100125.94
2022-08-29T06:06:41.298Z,100126.53
2022-08-29T06:11:33.445Z,100124.03
2022-08-29T06:16:28.752Z,100122.94
2022-08-29T06:21:20.678Z,100126.28
2022-08-29T06:26:13.398Z,100125.19
2022-08-29T06:31:09.662Z,100130.66
2022-08-29T06:36:01.608Z,100124.63
2022-08-29T06:40:53.232Z,100132.81
2022-08-29T06:45:44.881Z,100137.81
2022-08-29T06:50:43.619Z,100126.94
2022-08-29T06:55:38.047Z,100131.94
2022-08-29T07:00:31.161Z,100124.81
2022-08-29T07:05:23.960Z,100135.28
2022-08-29T07:10:21.595Z,100132.88
2022-08-29T07:15:14.277Z,100140.34
2022-08-29T07:20:07.044Z,100133.06
2022-08-29T07:24:58.713Z,100139.38
2022-08-29T07:29:50.892Z,100137.44
2022-08-29T07:34:42.555Z,100131.16
2022-08-29T07:39:34.212Z,100139.94
2022-08-29T07:44:26.533Z,100149.31
2022-08-29T07:49:22.458Z,100147.78
2022-08-29T07:54:17.033Z,100141.19
2022-08-29T07:59:09.270Z,100142.13
2022-08-29T08:04:01.039Z,100150.78
2022-08-29T08:08:52.849Z,100156.34
2022-08-29T08:13:44.713Z,100156.75
2022-08-29T08:18:38.121Z,100149.22
2022-08-29T08:23:29.869Z,100145.97
2022-08-29T08:28:21.657Z,100147.66
2022-08-29T08:33:13.316Z,100159.03
2022-08-29T08:38:06.906Z,100164.09
2022-08-29T08:43:02.752Z,100166.16
2022-08-29T08:48:05.691Z,100163.91
2022-08-29T08:53:04.378Z,100172.59
2022-08-29T08:58:18.297Z,100168.13
2022-08-29T09:03:25.876Z,100164.19
2022-08-29T09:08:38.115Z,100161.09
2022-08-29T09:14:06.192Z,100162.06
2022-08-29T09:19:10.924Z,100172.72
2022-08-29T09:24:08.957Z,100173.28
2022-08-29T09:29:00.620Z,100163.59
2022-08-29T09:33:56.915Z,100171.03
2022-08-29T09:38:48.553Z,100168.25
2022-08-29T09:43:40.172Z,100167.16
2022-08-29T09:48:35.473Z,100176.53
2022-08-29T09:53:27.637Z,100174.94
2022-08-29T09:58:20.145Z,100189.84
2022-08-29T10:03:21.789Z,100180.75
2022-08-29T10:08:35.336Z,100180.75
2022-08-29T10:13:35.389Z,100174.69
2022-08-29T10:18:44.357Z,100180.47
2022-08-29T10:24:01.397Z,100186.00
2022-08-29T10:29:12.243Z,100185.41
2022-08-29T10:34:21.984Z,100184.53
2022-08-29T10:39:16.123Z,100184.78
2022-08-29T10:44:39.496Z,100193.28
2022-08-29T10:49:34.084Z,100190.84
2022-08-29T10:55:11.110Z,100196.31
2022-08-29T11:00:09.306Z,100189.38
2022-08-29T11:05:11.317Z,100194.03
2022-08-29T11:10:23.500Z,100193.19
2022-08-29T11:15:31.554Z,100184.09
2022-08-29T11:20:30.670Z,100184.41
2022-08-29T11:25:22.717Z,100197.94
2022-08-29T11:30:29.499Z,100195.16
2022-08-29T11:35:45.717Z,100206.66
2022-08-29T11:46:12.774Z,100196.00
2022-08-29T11:51:40.797Z,100194.66
2022-08-29T11:56:32.550Z,100184.44
2022-08-29T12:01:36.089Z,100184.50
2022-08-29T12:06:37.985Z,100190.06
2022-08-29T12:12:12.734Z,100189.25
2022-08-29T12:17:08.433Z,100194.94
2022-08-29T12:22:01.172Z,100187.97
2022-08-29T12:26:53.199Z,100193.38
2022-08-29T12:32:18.203Z,100188.41
2022-08-29T12:37:05.831Z,100176.91
2022-08-29T12:42:25.134Z,100170.94
2022-08-29T12:47:27.127Z,100168.88
2022-08-29T12:52:26.939Z,100178.63
2022-08-29T12:57:29.737Z,100181.13
2022-08-29T13:02:24.486Z,100176.47
2022-08-29T13:07:19.162Z,100175.63
2022-08-29T13:12:25.569Z,100178.63
2022-08-29T13:17:20.886Z,100168.66
2022-08-29T13:22:14.428Z,100166.69
2022-08-29T13:27:10.219Z,100173.56
2022-08-29T13:32:14.139Z,100163.69
2022-08-29T13:37:16.302Z,100164.22
2022-08-29T13:42:21.888Z,100161.19
2022-08-29T13:47:22.578Z,100159.31
2022-08-29T13:52:14.957Z,100148.31
2022-08-29T13:57:08.080Z,100146.09
2022-08-29T14:02:09.905Z,100141.44
2022-08-29T14:07:02.917Z,100136.22
2022-08-29T14:11:54.616Z,100136.25
2022-08-29T14:16:46.362Z,100121.16
2022-08-29T14:21:38.122Z,100117.84
2022-08-29T14:26:29.866Z,100107.09
2022-08-29T14:31:21.585Z,100107.13
2022-08-29T14:36:13.277Z,100105.75
2022-08-29T14:41:05.202Z,100113.47
2022-08-29T14:45:56.893Z,100101.88
2022-08-29T14:50:48.672Z,100103.53
2022-08-29T14:55:40.464Z,100116.25
2022-08-29T15:00:34.074Z,100104.59
2022-08-29T15:05:26.232Z,100112.53
2022-08-29T15:10:20.253Z,100104.56
2022-08-29T15:15:12.936Z,100110.06
2022-08-29T15:25:18.221Z,100098.53
2022-08-29T15:30:11.171Z,100102.38
2022-08-29T15:35:03.020Z,100102.09
2022-08-29T15:44:46.727Z,100090.25
2022-08-29T15:49:42.997Z,100092.16
2022-08-29T15:54:36.082Z,100098.47
2022-08-29T15:59:54.227Z,100094.09
2022-08-29T16:04:44.843Z,100091.34
2022-08-29T16:09:36.506Z,100092.72
2022-08-29T16:14:58.089Z,100089.94
2022-08-29T16:19:41.804Z,100097.06
2022-08-29T16:24:33.752Z,100095.41
2022-08-29T16:29:26.842Z,100094.53
2022-08-29T16:34:18.772Z,100086.25
2022-08-29T16:39:10.973Z,100084.84
2022-08-29T16:44:03.662Z,100088.66
2022-08-29T16:48:57.196Z,100087.78
2022-08-29T16:53:49.452Z,100096.84
2022-08-29T16:59:01.693Z,100085.31
2022-08-29T17:03:53.423Z,100092.16
2022-08-29T17:08:45.067Z,100092.94
2022-08-29T17:13:38.803Z,100092.94
2022-08-29T17:18:30.584Z,100098.09
2022-08-29T17:23:22.581Z,100087.81
2022-08-29T17:28:18.003Z,100089.28
2022-08-29T17:33:11.996Z,100091.91
2022-08-29T17:38:03.743Z,100101.78
2022-08-29T17:42:55.909Z,100086.38
2022-08-29T17:47:47.519Z,100084.19
2022-08-29T17:52:39.418Z,100086.38
2022-08-29T17:57:33.222Z,100092.41
2022-08-29T18:02:25.322Z,100097.28
2022-08-29T18:07:18.140Z,100091.13
2022-08-29T18:12:10.190Z,100108.34
2022-08-29T18:17:02.018Z,100105.22
2022-08-29T18:21:53.971Z,100120.84
2022-08-29T18:26:47.099Z,100115.53
2022-08-29T18:31:39.847Z,100125.31
2022-08-29T18:36:33.383Z,100120.28
2022-08-29T18:41:25.429Z,100119.88
2022-08-29T18:46:17.051Z,100124.72
2022-08-29T18:51:08.674Z,100117.78
2022-08-29T18:56:01.217Z,100133.09
2022-08-29T19:00:54.429Z,100127.53
2022-08-29T19:05:49.927Z,100133.53
2022-08-29T19:10:42.782Z,100131.03
2022-08-29T19:15:41.275Z,100131.28
2022-08-29T19:20:52.781Z,100137.53
2022-08-29T19:25:44.513Z,100147.59
2022-08-29T19:30:38.221Z,100152.94
2022-08-29T19:35:29.874Z,100165.50
2022-08-29T19:40:21.829Z,100168.75
2022-08-29T19:45:16.376Z,100166.75
2022-08-29T19:50:11.835Z,100164.50
2022-08-29T19:55:06.205Z,100177.88
2022-08-29T19:59:57.832Z,100170.66
2022-08-29T20:04:51.181Z,100182.03
2022-08-29T20:09:42.799Z,100176.13
2022-08-29T20:14:35.033Z,100181.28
2022-08-29T20:19:27.037Z,100182.00
2022-08-29T20:24:19.286Z,100189.28
2022-08-29T20:29:12.138Z,100200.16
2022-08-29T20:34:04.274Z,100187.19
2022-08-29T20:38:56.019Z,100199.63
2022-08-29T20:43:47.673Z,100198.94
2022-08-29T20:48:39.421Z,100195.31
2022-08-29T20:53:31.995Z,100199.84
2022-08-29T20:58:24.198Z,100201.63
2022-08-29T21:03:35.601Z,100203.22
2022-08-29T21:08:27.893Z,100196.81
2022-08-29T21:13:20.077Z,100205.75
2022-08-29T21:18:14.402Z,100196.59
2022-08-29T21:23:08.284Z,100221.47
2022-08-29T21:27:59.998Z,100219.13
2022-08-29T21:32:51.767Z,100234.94
2022-08-29T21:37:43.422Z,100221.75
2022-08-29T21:42:35.680Z,100219.25
2022-08-29T21:47:28.480Z,100219.38
2022-08-29T21:52:20.205Z,100217.13
2022-08-29T21:57:19.432Z,100215.72
2022-08-29T22:02:12.350Z,100220.34
2022-08-29T22:07:04.303Z,100226.91
2022-08-29T22:11:56.510Z,100231.28
2022-08-29T22:16:48.169Z,100233.44
2022-08-29T22:21:46.008Z,100234.50
2022-08-29T22:26:38.186Z,100232.25
2022-08-29T22:31:31.909Z,100222.59
2022-08-29T22:36:24.723Z,100223.31
2022-08-29T22:41:20.768Z,100230.31
2022-08-29T22:46:16.321Z,100217.72
2022-08-29T22:51:37.491Z,100216.31
2022-08-29T22:56:30.452Z,100223.31
2022-08-29T23:01:22.133Z,100231.75
2022-08-29T23:06:13.777Z,100234.13
2022-08-29T23:11:05.657Z,100243.63
2022-08-29T23:15:57.339Z,100229.84
2022-08-29T23:20:49.017Z,100235.81
2022-08-29T23:25:40.801Z,100239.47
2022-08-29T23:30:32.701Z,100232.56
2022-08-29T23:35:24.446Z,100230.94
2022-08-29T23:40:18.524Z,100226.41
2022-08-29T23:45:10.868Z,100221.41
2022-08-29T23:50:03.879Z,100229.22
2022-08-29T23:54:55.562Z,100231.63
